sensor_id;sensor_type;location;lat;lon;timestamp;P1;durP1;ratioP1;P2;durP2;ratioP2
13085;SDS011;6609;49.882;8.664;2022-08-19T00:00:40;16.77;;;11.50;;
13085;SDS011;6609;49.882;8.664;2022-08-19T00:03:07;13.27;;;11.87;;
13085;SDS011;6609;49.882;8.664;2022-08-19T00:05:33;13.97;;;11.97;;
13085;SDS011;6609;49.882;8.664;2022-08-19T00:08:02;15.30;;;11.50;;
13085;SDS011;6609;49.882;8.664;2022-08-19T00:10:29;15.90;;;11.70;;
13085;SDS011;6609;49.882;8.664;2022-08-19T00:12:56;15.90;;;12.17;;
13085;SDS011;6609;49.882;8.664;2022-08-19T00:15:23;14.93;;;11.40;;
13085;SDS011;6609;49.882;8.664;2022-08-19T00:17:49;13.27;;;11.77;;
13085;SDS011;6609;49.882;8.664;2022-08-19T00:20:17;13.27;;;11.17;;
13085;SDS011;6609;49.882;8.664;2022-08-19T00:22:45;15.07;;;12.17;;
13085;SDS011;6609;49.882;8.664;2022-08-19T00:25:14;14.53;;;10.57;;
13085;SDS011;6609;49.882;8.664;2022-08-19T00:27:41;13.40;;;11.87;;
13085;SDS011;6609;49.882;8.664;2022-08-19T00:30:09;15.87;;;12.43;;
13085;SDS011;6609;49.882;8.664;2022-08-19T00:32:37;13.57;;;11.30;;
13085;SDS011;6609;49.882;8.664;2022-08-19T00:35:04;14.87;;;11.93;;
13085;SDS011;6609;49.882;8.664;2022-08-19T00:37:31;12.70;;;11.33;;
13085;SDS011;6609;49.882;8.664;2022-08-19T00:39:59;14.30;;;11.80;;
13085;SDS011;6609;49.882;8.664;2022-08-19T00:42:29;14.47;;;11.30;;
13085;SDS011;6609;49.882;8.664;2022-08-19T00:44:56;14.23;;;10.77;;
13085;SDS011;6609;49.882;8.664;2022-08-19T00:47:23;13.73;;;11.77;;
13085;SDS011;6609;49.882;8.664;2022-08-19T00:49:50;15.27;;;11.67;;
13085;SDS011;6609;49.882;8.664;2022-08-19T00:52:20;14.57;;;11.63;;
13085;SDS011;6609;49.882;8.664;2022-08-19T00:54:50;17.10;;;12.97;;
13085;SDS011;6609;49.882;8.664;2022-08-19T00:57:19;14.53;;;12.90;;
13085;SDS011;6609;49.882;8.664;2022-08-19T00:59:53;18.27;;;12.83;;
13085;SDS011;6609;49.882;8.664;2022-08-19T01:02:21;15.50;;;12.60;;
13085;SDS011;6609;49.882;8.664;2022-08-19T01:04:50;16.27;;;13.63;;
13085;SDS011;6609;49.882;8.664;2022-08-19T01:07:17;17.57;;;12.90;;
13085;SDS011;6609;49.882;8.664;2022-08-19T01:09:44;15.77;;;12.47;;
13085;SDS011;6609;49.882;8.664;2022-08-19T01:12:11;16.67;;;12.30;;
13085;SDS011;6609;49.882;8.664;2022-08-19T01:14:39;17.27;;;13.17;;
13085;SDS011;6609;49.882;8.664;2022-08-19T01:17:08;18.27;;;13.53;;
13085;SDS011;6609;49.882;8.664;2022-08-19T01:19:37;16.80;;;13.57;;
13085;SDS011;6609;49.882;8.664;2022-08-19T01:22:07;15.53;;;12.20;;
13085;SDS011;6609;49.882;8.664;2022-08-19T01:24:39;17.00;;;13.20;;
13085;SDS011;6609;49.882;8.664;2022-08-19T01:27:06;21.20;;;13.80;;
13085;SDS011;6609;49.882;8.664;2022-08-19T01:29:34;16.70;;;12.63;;
13085;SDS011;6609;49.882;8.664;2022-08-19T01:32:04;16.80;;;13.17;;
13085;SDS011;6609;49.882;8.664;2022-08-19T01:34:31;17.70;;;13.33;;
13085;SDS011;6609;49.882;8.664;2022-08-19T01:36:59;14.63;;;12.87;;
13085;SDS011;6609;49.882;8.664;2022-08-19T01:39:27;16.93;;;13.77;;
13085;SDS011;6609;49.882;8.664;2022-08-19T01:41:55;17.83;;;14.03;;
13085;SDS011;6609;49.882;8.664;2022-08-19T01:44:22;17.93;;;13.70;;
13085;SDS011;6609;49.882;8.664;2022-08-19T01:46:50;18.37;;;14.47;;
13085;SDS011;6609;49.882;8.664;2022-08-19T01:49:17;17.90;;;13.27;;
13085;SDS011;6609;49.882;8.664;2022-08-19T01:51:46;16.33;;;13.23;;
13085;SDS011;6609;49.882;8.664;2022-08-19T01:54:15;18.97;;;13.63;;
13085;SDS011;6609;49.882;8.664;2022-08-19T01:56:43;19.30;;;13.60;;
13085;SDS011;6609;49.882;8.664;2022-08-19T01:59:12;15.50;;;12.77;;
13085;SDS011;6609;49.882;8.664;2022-08-19T02:01:43;14.87;;;11.67;;
13085;SDS011;6609;49.882;8.664;2022-08-19T02:04:10;16.70;;;12.33;;
13085;SDS011;6609;49.882;8.664;2022-08-19T02:06:37;18.10;;;12.43;;
13085;SDS011;6609;49.882;8.664;2022-08-19T02:09:05;17.50;;;11.87;;
13085;SDS011;6609;49.882;8.664;2022-08-19T02:11:34;13.67;;;11.23;;
13085;SDS011;6609;49.882;8.664;2022-08-19T02:14:04;15.33;;;11.77;;
13085;SDS011;6609;49.882;8.664;2022-08-19T02:16:33;16.67;;;11.10;;
13085;SDS011;6609;49.882;8.664;2022-08-19T02:19:00;16.57;;;11.53;;
13085;SDS011;6609;49.882;8.664;2022-08-19T02:21:28;14.70;;;11.63;;
13085;SDS011;6609;49.882;8.664;2022-08-19T02:23:55;13.83;;;11.43;;
13085;SDS011;6609;49.882;8.664;2022-08-19T02:26:22;15.80;;;12.57;;
13085;SDS011;6609;49.882;8.664;2022-08-19T02:28:51;17.17;;;12.50;;
13085;SDS011;6609;49.882;8.664;2022-08-19T02:31:19;15.43;;;11.37;;
13085;SDS011;6609;49.882;8.664;2022-08-19T02:33:48;14.73;;;11.57;;
13085;SDS011;6609;49.882;8.664;2022-08-19T02:36:17;15.83;;;11.27;;
13085;SDS011;6609;49.882;8.664;2022-08-19T02:38:44;17.03;;;11.83;;
13085;SDS011;6609;49.882;8.664;2022-08-19T02:41:11;15.33;;;11.10;;
13085;SDS011;6609;49.882;8.664;2022-08-19T02:43:41;18.00;;;11.00;;
13085;SDS011;6609;49.882;8.664;2022-08-19T02:46:12;14.47;;;11.73;;
13085;SDS011;6609;49.882;8.664;2022-08-19T02:48:42;14.07;;;11.93;;
13085;SDS011;6609;49.882;8.664;2022-08-19T02:51:16;15.17;;;11.57;;
13085;SDS011;6609;49.882;8.664;2022-08-19T02:53:43;15.00;;;11.50;;
13085;SDS011;6609;49.882;8.664;2022-08-19T02:56:10;13.70;;;11.10;;
13085;SDS011;6609;49.882;8.664;2022-08-19T02:58:37;19.20;;;12.37;;
13085;SDS011;6609;49.882;8.664;2022-08-19T03:01:04;14.67;;;12.37;;
13085;SDS011;6609;49.882;8.664;2022-08-19T03:03:31;15.20;;;12.23;;
13085;SDS011;6609;49.882;8.664;2022-08-19T03:06:07;18.50;;;13.03;;
13085;SDS011;6609;49.882;8.664;2022-08-19T03:08:38;14.73;;;12.17;;
13085;SDS011;6609;49.882;8.664;2022-08-19T03:11:11;14.23;;;11.73;;
13085;SDS011;6609;49.882;8.664;2022-08-19T03:13:39;16.50;;;12.03;;
13085;SDS011;6609;49.882;8.664;2022-08-19T03:16:06;15.13;;;11.60;;
13085;SDS011;6609;49.882;8.664;2022-08-19T03:18:33;15.70;;;11.67;;
13085;SDS011;6609;49.882;8.664;2022-08-19T03:20:59;16.10;;;11.60;;
13085;SDS011;6609;49.882;8.664;2022-08-19T03:23:26;13.37;;;10.83;;
13085;SDS011;6609;49.882;8.664;2022-08-19T03:25:55;13.97;;;11.50;;
13085;SDS011;6609;49.882;8.664;2022-08-19T03:28:22;14.23;;;11.13;;
13085;SDS011;6609;49.882;8.664;2022-08-19T03:30:55;15.30;;;12.20;;
13085;SDS011;6609;49.882;8.664;2022-08-19T03:33:23;14.33;;;11.63;;
13085;SDS011;6609;49.882;8.664;2022-08-19T03:36:01;14.10;;;10.33;;
13085;SDS011;6609;49.882;8.664;2022-08-19T03:38:28;15.97;;;10.73;;
13085;SDS011;6609;49.882;8.664;2022-08-19T03:40:56;14.93;;;11.73;;
13085;SDS011;6609;49.882;8.664;2022-08-19T03:43:24;16.20;;;11.43;;
13085;SDS011;6609;49.882;8.664;2022-08-19T03:45:59;19.77;;;11.93;;
13085;SDS011;6609;49.882;8.664;2022-08-19T03:48:26;13.47;;;10.50;;
13085;SDS011;6609;49.882;8.664;2022-08-19T03:50:55;13.97;;;11.87;;
13085;SDS011;6609;49.882;8.664;2022-08-19T03:53:22;16.17;;;11.23;;
13085;SDS011;6609;49.882;8.664;2022-08-19T03:55:49;16.73;;;12.30;;
13085;SDS011;6609;49.882;8.664;2022-08-19T03:58:17;16.83;;;12.17;;
13085;SDS011;6609;49.882;8.664;2022-08-19T04:00:44;17.50;;;11.57;;
13085;SDS011;6609;49.882;8.664;2022-08-19T04:03:11;18.30;;;11.77;;
13085;SDS011;6609;49.882;8.664;2022-08-19T04:05:38;15.47;;;12.53;;
13085;SDS011;6609;49.882;8.664;2022-08-19T04:08:05;16.73;;;11.80;;
13085;SDS011;6609;49.882;8.664;2022-08-19T04:10:35;17.90;;;12.40;;
13085;SDS011;6609;49.882;8.664;2022-08-19T04:13:02;18.73;;;12.43;;
13085;SDS011;6609;49.882;8.664;2022-08-19T04:15:31;15.37;;;11.73;;
13085;SDS011;6609;49.882;8.664;2022-08-19T04:18:04;14.57;;;11.50;;
13085;SDS011;6609;49.882;8.664;2022-08-19T04:20:32;14.23;;;11.60;;
13085;SDS011;6609;49.882;8.664;2022-08-19T04:22:59;15.43;;;11.60;;
13085;SDS011;6609;49.882;8.664;2022-08-19T04:25:26;16.43;;;11.87;;
13085;SDS011;6609;49.882;8.664;2022-08-19T04:27:53;14.63;;;11.80;;
13085;SDS011;6609;49.882;8.664;2022-08-19T04:30:19;14.27;;;11.43;;
13085;SDS011;6609;49.882;8.664;2022-08-19T04:32:48;16.60;;;12.30;;
13085;SDS011;6609;49.882;8.664;2022-08-19T04:35:15;14.63;;;12.10;;
13085;SDS011;6609;49.882;8.664;2022-08-19T04:37:43;16.60;;;11.27;;
13085;SDS011;6609;49.882;8.664;2022-08-19T04:40:09;16.47;;;12.17;;
13085;SDS011;6609;49.882;8.664;2022-08-19T04:42:54;14.27;;;12.07;;
13085;SDS011;6609;49.882;8.664;2022-08-19T04:45:21;16.53;;;11.73;;
13085;SDS011;6609;49.882;8.664;2022-08-19T04:47:54;17.67;;;12.87;;
13085;SDS011;6609;49.882;8.664;2022-08-19T04:50:22;13.70;;;11.50;;
13085;SDS011;6609;49.882;8.664;2022-08-19T04:52:49;14.00;;;11.70;;
13085;SDS011;6609;49.882;8.664;2022-08-19T04:55:18;13.70;;;11.33;;
13085;SDS011;6609;49.882;8.664;2022-08-19T04:57:45;15.23;;;11.07;;
13085;SDS011;6609;49.882;8.664;2022-08-19T05:00:12;17.40;;;12.03;;
13085;SDS011;6609;49.882;8.664;2022-08-19T05:02:39;16.93;;;11.20;;
13085;SDS011;6609;49.882;8.664;2022-08-19T05:05:08;15.67;;;12.20;;
13085;SDS011;6609;49.882;8.664;2022-08-19T05:07:35;19.87;;;11.63;;
13085;SDS011;6609;49.882;8.664;2022-08-19T05:10:02;15.37;;;12.20;;
13085;SDS011;6609;49.882;8.664;2022-08-19T05:12:30;16.30;;;11.97;;
13085;SDS011;6609;49.882;8.664;2022-08-19T05:14:57;14.50;;;11.20;;
13085;SDS011;6609;49.882;8.664;2022-08-19T05:17:25;17.50;;;12.03;;
13085;SDS011;6609;49.882;8.664;2022-08-19T05:19:53;13.77;;;11.20;;
13085;SDS011;6609;49.882;8.664;2022-08-19T05:22:39;13.50;;;10.83;;
13085;SDS011;6609;49.882;8.664;2022-08-19T05:25:08;17.97;;;11.87;;
13085;SDS011;6609;49.882;8.664;2022-08-19T05:27:38;14.23;;;11.53;;
13085;SDS011;6609;49.882;8.664;2022-08-19T05:30:05;16.17;;;11.00;;
13085;SDS011;6609;49.882;8.664;2022-08-19T05:32:32;13.60;;;11.07;;
13085;SDS011;6609;49.882;8.664;2022-08-19T05:34:59;17.70;;;11.13;;
13085;SDS011;6609;49.882;8.664;2022-08-19T05:37:26;14.47;;;12.13;;
13085;SDS011;6609;49.882;8.664;2022-08-19T05:39:54;14.77;;;11.33;;
13085;SDS011;6609;49.882;8.664;2022-08-19T05:42:21;13.57;;;10.87;;
13085;SDS011;6609;49.882;8.664;2022-08-19T05:44:49;14.13;;;11.93;;
13085;SDS011;6609;49.882;8.664;2022-08-19T05:47:16;19.53;;;11.70;;
13085;SDS011;6609;49.882;8.664;2022-08-19T05:49:44;15.80;;;11.03;;
13085;SDS011;6609;49.882;8.664;2022-08-19T05:52:12;15.37;;;12.07;;
13085;SDS011;6609;49.882;8.664;2022-08-19T05:54:40;32.93;;;12.40;;
13085;SDS011;6609;49.882;8.664;2022-08-19T05:57:09;16.20;;;12.10;;
13085;SDS011;6609;49.882;8.664;2022-08-19T05:59:36;14.73;;;11.50;;
13085;SDS011;6609;49.882;8.664;2022-08-19T06:02:04;15.30;;;11.43;;
13085;SDS011;6609;49.882;8.664;2022-08-19T06:04:32;14.57;;;11.53;;
13085;SDS011;6609;49.882;8.664;2022-08-19T06:06:59;17.87;;;11.63;;
13085;SDS011;6609;49.882;8.664;2022-08-19T06:09:27;15.37;;;11.30;;
13085;SDS011;6609;49.882;8.664;2022-08-19T06:11:55;16.00;;;11.67;;
13085;SDS011;6609;49.882;8.664;2022-08-19T06:14:27;15.53;;;12.27;;
13085;SDS011;6609;49.882;8.664;2022-08-19T06:16:55;15.23;;;12.37;;
13085;SDS011;6609;49.882;8.664;2022-08-19T06:19:23;13.40;;;11.43;;
13085;SDS011;6609;49.882;8.664;2022-08-19T06:21:50;16.97;;;11.90;;
13085;SDS011;6609;49.882;8.664;2022-08-19T06:24:18;13.07;;;10.57;;
13085;SDS011;6609;49.882;8.664;2022-08-19T06:26:48;15.37;;;11.80;;
13085;SDS011;6609;49.882;8.664;2022-08-19T06:29:17;14.53;;;11.10;;
13085;SDS011;6609;49.882;8.664;2022-08-19T06:31:46;15.57;;;10.73;;
13085;SDS011;6609;49.882;8.664;2022-08-19T06:34:14;14.67;;;10.90;;
13085;SDS011;6609;49.882;8.664;2022-08-19T06:36:42;14.57;;;10.33;;
13085;SDS011;6609;49.882;8.664;2022-08-19T06:39:11;13.47;;;10.70;;
13085;SDS011;6609;49.882;8.664;2022-08-19T06:41:39;17.43;;;10.93;;
13085;SDS011;6609;49.882;8.664;2022-08-19T06:44:07;14.33;;;10.53;;
13085;SDS011;6609;49.882;8.664;2022-08-19T06:46:34;11.40;;;10.10;;
13085;SDS011;6609;49.882;8.664;2022-08-19T06:49:03;15.77;;;11.07;;
13085;SDS011;6609;49.882;8.664;2022-08-19T06:51:33;13.93;;;11.60;;
13085;SDS011;6609;49.882;8.664;2022-08-19T06:54:00;13.40;;;11.07;;
13085;SDS011;6609;49.882;8.664;2022-08-19T06:56:29;13.83;;;10.23;;
13085;SDS011;6609;49.882;8.664;2022-08-19T06:58:58;13.10;;;9.63;;
13085;SDS011;6609;49.882;8.664;2022-08-19T07:01:25;18.50;;;10.63;;
13085;SDS011;6609;49.882;8.664;2022-08-19T07:03:52;12.77;;;10.23;;
13085;SDS011;6609;49.882;8.664;2022-08-19T07:06:22;12.13;;;9.20;;
13085;SDS011;6609;49.882;8.664;2022-08-19T07:08:49;12.80;;;9.57;;
13085;SDS011;6609;49.882;8.664;2022-08-19T07:11:17;12.60;;;9.70;;
13085;SDS011;6609;49.882;8.664;2022-08-19T07:13:44;15.47;;;9.77;;
13085;SDS011;6609;49.882;8.664;2022-08-19T07:16:14;10.73;;;9.13;;
13085;SDS011;6609;49.882;8.664;2022-08-19T07:18:44;13.20;;;8.87;;
13085;SDS011;6609;49.882;8.664;2022-08-19T07:21:15;12.20;;;8.83;;
13085;SDS011;6609;49.882;8.664;2022-08-19T07:23:44;12.40;;;9.50;;
13085;SDS011;6609;49.882;8.664;2022-08-19T07:26:13;10.53;;;8.57;;
13085;SDS011;6609;49.882;8.664;2022-08-19T07:28:40;13.30;;;9.20;;
13085;SDS011;6609;49.882;8.664;2022-08-19T07:31:10;14.23;;;8.10;;
13085;SDS011;6609;49.882;8.664;2022-08-19T07:33:37;17.20;;;8.93;;
13085;SDS011;6609;49.882;8.664;2022-08-19T07:36:06;10.77;;;7.50;;
13085;SDS011;6609;49.882;8.664;2022-08-19T07:38:35;10.90;;;7.20;;
13085;SDS011;6609;49.882;8.664;2022-08-19T07:41:04;11.23;;;8.17;;
13085;SDS011;6609;49.882;8.664;2022-08-19T07:43:32;8.83;;;6.90;;
13085;SDS011;6609;49.882;8.664;2022-08-19T07:45:59;9.27;;;7.10;;
13085;SDS011;6609;49.882;8.664;2022-08-19T07:48:26;8.20;;;6.67;;
13085;SDS011;6609;49.882;8.664;2022-08-19T07:50:54;9.10;;;7.13;;
13085;SDS011;6609;49.882;8.664;2022-08-19T07:53:24;9.03;;;6.77;;
13085;SDS011;6609;49.882;8.664;2022-08-19T07:55:51;8.10;;;6.53;;
13085;SDS011;6609;49.882;8.664;2022-08-19T07:58:20;5.90;;;5.33;;
13085;SDS011;6609;49.882;8.664;2022-08-19T08:00:49;6.30;;;5.70;;
13085;SDS011;6609;49.882;8.664;2022-08-19T08:03:17;10.30;;;6.60;;
13085;SDS011;6609;49.882;8.664;2022-08-19T08:06:06;9.37;;;6.40;;
13085;SDS011;6609;49.882;8.664;2022-08-19T08:08:47;10.73;;;6.40;;
13085;SDS011;6609;49.882;8.664;2022-08-19T08:11:32;12.47;;;6.43;;
13085;SDS011;6609;49.882;8.664;2022-08-19T08:14:00;7.43;;;5.33;;
13085;SDS011;6609;49.882;8.664;2022-08-19T08:16:27;6.67;;;5.97;;
13085;SDS011;6609;49.882;8.664;2022-08-19T08:18:56;6.30;;;5.67;;
13085;SDS011;6609;49.882;8.664;2022-08-19T08:21:23;7.50;;;5.20;;
13085;SDS011;6609;49.882;8.664;2022-08-19T08:23:50;7.83;;;4.83;;
13085;SDS011;6609;49.882;8.664;2022-08-19T08:26:20;5.43;;;4.50;;
13085;SDS011;6609;49.882;8.664;2022-08-19T08:28:47;6.40;;;4.07;;
13085;SDS011;6609;49.882;8.664;2022-08-19T08:31:15;6.40;;;3.73;;
13085;SDS011;6609;49.882;8.664;2022-08-19T08:33:43;5.90;;;3.47;;
13085;SDS011;6609;49.882;8.664;2022-08-19T08:36:10;3.87;;;3.37;;
13085;SDS011;6609;49.882;8.664;2022-08-19T08:38:39;5.23;;;3.60;;
13085;SDS011;6609;49.882;8.664;2022-08-19T08:41:12;6.00;;;3.50;;
13085;SDS011;6609;49.882;8.664;2022-08-19T08:43:46;5.23;;;4.30;;
13085;SDS011;6609;49.882;8.664;2022-08-19T08:46:18;4.70;;;3.80;;
13085;SDS011;6609;49.882;8.664;2022-08-19T08:48:51;4.97;;;3.97;;
13085;SDS011;6609;49.882;8.664;2022-08-19T08:51:22;4.40;;;3.80;;
13085;SDS011;6609;49.882;8.664;2022-08-19T08:53:53;5.67;;;3.67;;
13085;SDS011;6609;49.882;8.664;2022-08-19T08:56:21;5.13;;;3.73;;
13085;SDS011;6609;49.882;8.664;2022-08-19T08:58:51;5.83;;;3.77;;
13085;SDS011;6609;49.882;8.664;2022-08-19T09:01:25;6.13;;;3.87;;
13085;SDS011;6609;49.882;8.664;2022-08-19T09:03:52;4.27;;;3.43;;
13085;SDS011;6609;49.882;8.664;2022-08-19T09:06:21;3.93;;;3.20;;
13085;SDS011;6609;49.882;8.664;2022-08-19T09:08:56;6.07;;;3.53;;
13085;SDS011;6609;49.882;8.664;2022-08-19T09:11:33;4.53;;;3.27;;
13085;SDS011;6609;49.882;8.664;2022-08-19T09:14:17;4.03;;;3.63;;
13085;SDS011;6609;49.882;8.664;2022-08-19T09:16:57;3.53;;;2.87;;
13085;SDS011;6609;49.882;8.664;2022-08-19T09:19:24;3.57;;;3.20;;
13085;SDS011;6609;49.882;8.664;2022-08-19T09:21:51;3.63;;;3.33;;
13085;SDS011;6609;49.882;8.664;2022-08-19T09:24:18;5.83;;;3.17;;
13085;SDS011;6609;49.882;8.664;2022-08-19T09:26:45;3.93;;;3.33;;
13085;SDS011;6609;49.882;8.664;2022-08-19T09:29:11;6.07;;;3.40;;
13085;SDS011;6609;49.882;8.664;2022-08-19T09:31:38;4.23;;;3.60;;
13085;SDS011;6609;49.882;8.664;2022-08-19T09:34:07;4.80;;;3.57;;
13085;SDS011;6609;49.882;8.664;2022-08-19T09:36:33;3.83;;;3.07;;
13085;SDS011;6609;49.882;8.664;2022-08-19T09:39:04;4.83;;;3.50;;
13085;SDS011;6609;49.882;8.664;2022-08-19T09:41:31;5.23;;;4.00;;
13085;SDS011;6609;49.882;8.664;2022-08-19T09:43:58;5.83;;;4.13;;
13085;SDS011;6609;49.882;8.664;2022-08-19T09:46:26;5.87;;;4.17;;
13085;SDS011;6609;49.882;8.664;2022-08-19T09:48:59;3.70;;;3.40;;
13085;SDS011;6609;49.882;8.664;2022-08-19T09:51:27;5.83;;;4.20;;
13085;SDS011;6609;49.882;8.664;2022-08-19T09:53:54;5.50;;;3.87;;
13085;SDS011;6609;49.882;8.664;2022-08-19T09:56:25;4.10;;;3.70;;
13085;SDS011;6609;49.882;8.664;2022-08-19T09:58:53;4.97;;;4.47;;
13085;SDS011;6609;49.882;8.664;2022-08-19T10:01:20;6.77;;;4.30;;
13085;SDS011;6609;49.882;8.664;2022-08-19T10:03:48;6.30;;;4.90;;
13085;SDS011;6609;49.882;8.664;2022-08-19T10:06:17;6.83;;;4.90;;
13085;SDS011;6609;49.882;8.664;2022-08-19T10:08:46;5.60;;;4.50;;
13085;SDS011;6609;49.882;8.664;2022-08-19T10:11:13;7.30;;;4.70;;
13085;SDS011;6609;49.882;8.664;2022-08-19T10:13:42;5.90;;;4.40;;
13085;SDS011;6609;49.882;8.664;2022-08-19T10:16:12;4.87;;;4.37;;
13085;SDS011;6609;49.882;8.664;2022-08-19T10:18:42;4.63;;;4.23;;
13085;SDS011;6609;49.882;8.664;2022-08-19T10:21:10;5.03;;;4.53;;
13085;SDS011;6609;49.882;8.664;2022-08-19T10:23:39;4.93;;;4.43;;
13085;SDS011;6609;49.882;8.664;2022-08-19T10:26:11;7.23;;;5.07;;
13085;SDS011;6609;49.882;8.664;2022-08-19T10:28:41;6.90;;;5.40;;
13085;SDS011;6609;49.882;8.664;2022-08-19T10:31:10;5.07;;;4.57;;
13085;SDS011;6609;49.882;8.664;2022-08-19T10:33:38;6.43;;;4.97;;
13085;SDS011;6609;49.882;8.664;2022-08-19T10:36:06;7.43;;;4.67;;
13085;SDS011;6609;49.882;8.664;2022-08-19T10:38:37;8.20;;;5.23;;
13085;SDS011;6609;49.882;8.664;2022-08-19T10:41:07;4.53;;;4.13;;
13085;SDS011;6609;49.882;8.664;2022-08-19T10:43:37;6.60;;;4.80;;
13085;SDS011;6609;49.882;8.664;2022-08-19T10:46:05;5.20;;;4.70;;
13085;SDS011;6609;49.882;8.664;2022-08-19T10:48:32;5.27;;;4.77;;
13085;SDS011;6609;49.882;8.664;2022-08-19T10:50:59;5.27;;;4.77;;
13085;SDS011;6609;49.882;8.664;2022-08-19T10:53:44;6.90;;;4.80;;
13085;SDS011;6609;49.882;8.664;2022-08-19T10:56:11;5.80;;;4.97;;
13085;SDS011;6609;49.882;8.664;2022-08-19T10:58:56;6.20;;;5.03;;
13085;SDS011;6609;49.882;8.664;2022-08-19T11:01:24;5.43;;;4.87;;
13085;SDS011;6609;49.882;8.664;2022-08-19T11:03:50;6.27;;;4.53;;
13085;SDS011;6609;49.882;8.664;2022-08-19T11:06:18;6.57;;;5.13;;
13085;SDS011;6609;49.882;8.664;2022-08-19T11:08:45;5.10;;;4.60;;
13085;SDS011;6609;49.882;8.664;2022-08-19T11:11:12;6.00;;;4.67;;
13085;SDS011;6609;49.882;8.664;2022-08-19T11:13:40;8.33;;;5.20;;
13085;SDS011;6609;49.882;8.664;2022-08-19T11:16:10;5.90;;;5.30;;
13085;SDS011;6609;49.882;8.664;2022-08-19T11:18:40;7.03;;;5.63;;
13085;SDS011;6609;49.882;8.664;2022-08-19T11:21:10;6.83;;;5.20;;
13085;SDS011;6609;49.882;8.664;2022-08-19T11:23:38;5.83;;;4.87;;
13085;SDS011;6609;49.882;8.664;2022-08-19T11:26:06;5.23;;;4.13;;
13085;SDS011;6609;49.882;8.664;2022-08-19T11:28:33;5.00;;;4.50;;
13085;SDS011;6609;49.882;8.664;2022-08-19T11:31:00;5.23;;;3.73;;
13085;SDS011;6609;49.882;8.664;2022-08-19T11:33:30;4.60;;;4.20;;
13085;SDS011;6609;49.882;8.664;2022-08-19T11:35:57;5.53;;;5.03;;
13085;SDS011;6609;49.882;8.664;2022-08-19T11:38:25;7.10;;;4.60;;
13085;SDS011;6609;49.882;8.664;2022-08-19T11:40:56;4.73;;;4.30;;
13085;SDS011;6609;49.882;8.664;2022-08-19T11:43:24;4.73;;;4.33;;
13085;SDS011;6609;49.882;8.664;2022-08-19T11:45:52;8.93;;;4.80;;
13085;SDS011;6609;49.882;8.664;2022-08-19T11:48:18;5.33;;;4.83;;
13085;SDS011;6609;49.882;8.664;2022-08-19T11:50:48;5.30;;;4.80;;
13085;SDS011;6609;49.882;8.664;2022-08-19T11:53:15;6.57;;;4.93;;
13085;SDS011;6609;49.882;8.664;2022-08-19T11:55:44;5.50;;;4.97;;
13085;SDS011;6609;49.882;8.664;2022-08-19T11:58:11;6.33;;;5.10;;
13085;SDS011;6609;49.882;8.664;2022-08-19T12:00:38;6.27;;;5.67;;
13085;SDS011;6609;49.882;8.664;2022-08-19T12:03:05;5.60;;;5.10;;
13085;SDS011;6609;49.882;8.664;2022-08-19T12:05:32;8.97;;;6.27;;
13085;SDS011;6609;49.882;8.664;2022-08-19T12:08:01;7.10;;;6.23;;
13085;SDS011;6609;49.882;8.664;2022-08-19T12:10:28;6.17;;;5.67;;
13085;SDS011;6609;49.882;8.664;2022-08-19T12:12:55;7.63;;;6.77;;
13085;SDS011;6609;49.882;8.664;2022-08-19T12:15:22;7.47;;;6.77;;
13085;SDS011;6609;49.882;8.664;2022-08-19T12:17:49;7.53;;;6.83;;
13085;SDS011;6609;49.882;8.664;2022-08-19T12:20:17;7.00;;;6.30;;
13085;SDS011;6609;49.882;8.664;2022-08-19T12:22:43;7.33;;;6.60;;
13085;SDS011;6609;49.882;8.664;2022-08-19T12:25:11;7.80;;;6.97;;
13085;SDS011;6609;49.882;8.664;2022-08-19T12:27:38;8.97;;;6.63;;
13085;SDS011;6609;49.882;8.664;2022-08-19T12:30:06;7.50;;;6.80;;
13085;SDS011;6609;49.882;8.664;2022-08-19T12:32:35;7.37;;;6.73;;
13085;SDS011;6609;49.882;8.664;2022-08-19T12:35:02;6.60;;;6.00;;
13085;SDS011;6609;49.882;8.664;2022-08-19T12:37:29;8.90;;;6.83;;
13085;SDS011;6609;49.882;8.664;2022-08-19T12:39:57;6.90;;;6.20;;
13085;SDS011;6609;49.882;8.664;2022-08-19T12:42:25;7.13;;;6.53;;
13085;SDS011;6609;49.882;8.664;2022-08-19T12:44:53;8.30;;;7.37;;
13085;SDS011;6609;49.882;8.664;2022-08-19T12:47:20;7.83;;;7.00;;
13085;SDS011;6609;49.882;8.664;2022-08-19T12:49:47;10.83;;;5.87;;
13085;SDS011;6609;49.882;8.664;2022-08-19T12:52:14;7.10;;;5.60;;
13085;SDS011;6609;49.882;8.664;2022-08-19T12:54:41;7.77;;;6.17;;
13085;SDS011;6609;49.882;8.664;2022-08-19T12:57:09;5.93;;;5.33;;
13085;SDS011;6609;49.882;8.664;2022-08-19T12:59:38;7.43;;;5.17;;
13085;SDS011;6609;49.882;8.664;2022-08-19T13:02:06;5.30;;;4.80;;
13085;SDS011;6609;49.882;8.664;2022-08-19T13:04:34;4.70;;;4.27;;
13085;SDS011;6609;49.882;8.664;2022-08-19T13:07:05;4.67;;;4.20;;
13085;SDS011;6609;49.882;8.664;2022-08-19T13:09:32;4.40;;;4.00;;
13085;SDS011;6609;49.882;8.664;2022-08-19T13:11:59;5.33;;;3.77;;
13085;SDS011;6609;49.882;8.664;2022-08-19T13:14:29;5.07;;;3.77;;
13085;SDS011;6609;49.882;8.664;2022-08-19T13:16:58;4.57;;;4.10;;
13085;SDS011;6609;49.882;8.664;2022-08-19T13:19:25;4.50;;;3.50;;
13085;SDS011;6609;49.882;8.664;2022-08-19T13:21:52;3.57;;;3.27;;
13085;SDS011;6609;49.882;8.664;2022-08-19T13:24:20;3.47;;;3.17;;
13085;SDS011;6609;49.882;8.664;2022-08-19T13:26:47;3.80;;;3.03;;
13085;SDS011;6609;49.882;8.664;2022-08-19T13:29:14;4.87;;;3.60;;
13085;SDS011;6609;49.882;8.664;2022-08-19T13:32:00;4.43;;;3.50;;
13085;SDS011;6609;49.882;8.664;2022-08-19T13:34:44;3.17;;;2.97;;
13085;SDS011;6609;49.882;8.664;2022-08-19T13:37:11;3.70;;;3.10;;
13085;SDS011;6609;49.882;8.664;2022-08-19T13:39:38;3.33;;;3.07;;
13085;SDS011;6609;49.882;8.664;2022-08-19T13:42:05;4.07;;;3.70;;
13085;SDS011;6609;49.882;8.664;2022-08-19T13:44:33;3.70;;;3.40;;
13085;SDS011;6609;49.882;8.664;2022-08-19T13:47:02;4.53;;;3.47;;
13085;SDS011;6609;49.882;8.664;2022-08-19T13:49:31;3.40;;;3.10;;
13085;SDS011;6609;49.882;8.664;2022-08-19T13:52:00;3.40;;;3.10;;
13085;SDS011;6609;49.882;8.664;2022-08-19T13:54:28;3.47;;;2.50;;
13085;SDS011;6609;49.882;8.664;2022-08-19T13:56:54;3.43;;;3.13;;
13085;SDS011;6609;49.882;8.664;2022-08-19T13:59:21;3.43;;;2.83;;
13085;SDS011;6609;49.882;8.664;2022-08-19T14:01:48;2.80;;;2.60;;
13085;SDS011;6609;49.882;8.664;2022-08-19T14:04:16;3.40;;;2.67;;
13085;SDS011;6609;49.882;8.664;2022-08-19T14:06:43;3.33;;;2.93;;
13085;SDS011;6609;49.882;8.664;2022-08-19T14:09:10;3.10;;;2.80;;
13085;SDS011;6609;49.882;8.664;2022-08-19T14:11:37;4.07;;;2.90;;
13085;SDS011;6609;49.882;8.664;2022-08-19T14:14:04;3.70;;;2.70;;
13085;SDS011;6609;49.882;8.664;2022-08-19T14:16:30;7.43;;;2.23;;
13085;SDS011;6609;49.882;8.664;2022-08-19T14:18:57;3.77;;;2.60;;
13085;SDS011;6609;49.882;8.664;2022-08-19T14:21:26;2.93;;;2.73;;
13085;SDS011;6609;49.882;8.664;2022-08-19T14:23:52;3.53;;;2.70;;
13085;SDS011;6609;49.882;8.664;2022-08-19T14:26:20;3.03;;;2.73;;
13085;SDS011;6609;49.882;8.664;2022-08-19T14:28:47;2.50;;;2.10;;
13085;SDS011;6609;49.882;8.664;2022-08-19T14:31:15;3.43;;;2.60;;
13085;SDS011;6609;49.882;8.664;2022-08-19T14:33:44;5.50;;;2.50;;
13085;SDS011;6609;49.882;8.664;2022-08-19T14:36:12;4.73;;;2.40;;
13085;SDS011;6609;49.882;8.664;2022-08-19T14:38:40;2.40;;;2.20;;
13085;SDS011;6609;49.882;8.664;2022-08-19T14:41:08;2.47;;;2.27;;
13085;SDS011;6609;49.882;8.664;2022-08-19T14:43:38;2.67;;;2.20;;
13085;SDS011;6609;49.882;8.664;2022-08-19T14:46:05;2.93;;;2.40;;
13085;SDS011;6609;49.882;8.664;2022-08-19T14:48:33;3.70;;;2.60;;
13085;SDS011;6609;49.882;8.664;2022-08-19T14:51:01;3.17;;;2.60;;
13085;SDS011;6609;49.882;8.664;2022-08-19T14:53:28;2.60;;;2.40;;
13085;SDS011;6609;49.882;8.664;2022-08-19T14:55:56;4.33;;;2.87;;